メインページ
METAR-TAF:

METAR-TAF

空港 :

Cut Bank, モンタナ州, アメリカ合衆国

緯度: 48-36-30N, 経度: 112-22-34W, 海抜: 1175m

現時点の気象観測

当レポートは37分前の08:56(UTC)に作成
気温 -1°C
湿度 74%
気圧 1019 hPa
視程: 16.1km
晴天

METAR: KCTB 140856Z AUTO 10SM CLR M01/M05 A3009 RMK AO2 SLP206 T10111050 56002 $

時間: 02:33 (09:33 UTC)

予報

当レポートは4時間2分前の05:31(UTC)に作成
予報は14日の 06時(UTC)から 15日の 06時(UTC)まで有効
西の風 10kt
視程: 10km
高度20000ftの雲はほとんどない
14日の 1900時(UTC)から
南西の風 11kt、最大19ktの突風を伴う
視程: 10km
高度10000ftの雲は散在している
高度20000ftの千切れ雲あり
15日の 0300時(UTC)から
南西の風 7kt
視程: 10km
高度12000ftの雲は散在している

TAF: KCTB 140531Z 1406/1506 26010KT P6SM FEW200 FM141900 23011G19KT P6SM SCT100 BKN200 FM150300 22007KT P6SM SCT120

4,000以上の空港の気象観測と天気予報(METAR報とTAF報)

利用可能な観測所は地図上に黄色い丸と赤い丸で示す。

丸の上にカーソルを重ねると観測所名を参照できる。

次にクリックすると気象観測と天気予報を参照できる。

マップの切り替え:黒色「×」印の緑ボタンをクリックして拡大、「-」印の緑ボタンをクリックして縮小、緑色の三角印をクリックして隣りの地図に切り替え


METAR-TAF: